Latest Weather Observations for Sellicks Hill

IDS60801

Issued at 1:35 am CDT Wednesday 22 October 2014 (issued every 30 minutes, with the page automatically refreshed every 10 minutes)

About weather observations | Map of weather stations | Latest weather observations for SA | Other Formats
Station Details ID: 023886 Name: MOUNT TERRIBLE RADAR Lat: -35.33 Lon: 138.50 Height: 385.7 m
Data from the previous 72 hours. | See also: Recent months for locations in South Australia
Date/Time
CDT
Temp
°C
App
Temp
°C
Dew
Point
Rel
Hum
%
Delta-T
°C
Wind Press
QNH
hPa
Press
MSL
hPa
Rain
since 9 am
mm
Dir
 
Spd
km/h
Gust
km/h
Spd
kts
Gust
kts
22/01:30am - - - - - S 22 30 12 16 - - -
22/01:00am - - - - - NNW 6 11 3 6 - - -
22/12:30am - - - - - NNE 7 11 4 6 - - -
22/12:00am - - - - - NNE 7 17 4 9 - - -
 
Date/Time
CDT
Temp
°C
App
Temp
°C
Dew
Point
Rel
Hum
%
Delta-T
°C
Wind Press
QNH
hPa
Press
MSL
hPa
Rain
since 9 am
mm
Dir
 
Spd
km/h
Gust
km/h
Spd
kts
Gust
kts
21/11:30pm - - - - - NNE 9 24 5 13 - - -
21/11:00pm - - - - - NNE 9 20 5 11 - - -
21/10:30pm - - - - - ENE 13 17 7 9 - - -
21/10:00pm - - - - - E 15 20 8 11 - - -
21/09:30pm - - - - - E 15 20 8 11 - - -
21/09:00pm - - - - - E 19 24 10 13 - - -
21/08:30pm - - - - - E 19 28 10 15 - - -
21/08:00pm - - - - - E 15 24 8 13 - - -
21/07:30pm - - - - - ENE 6 7 3 4 - - -
21/07:00pm - - - - - ENE 6 7 3 4 - - -
21/06:30pm - - - - - CALM 0 0 0 0 - - -
21/06:00pm - - - - - N 2 7 1 4 - - -
21/05:30pm - - - - - NNW 6 9 3 5 - - -
21/05:00pm - - - - - NNW 4 7 2 4 - - -
21/04:30pm - - - - - NNW 4 7 2 4 - - -
21/04:00pm - - - - - NNW 7 15 4 8 - - -
21/03:30pm - - - - - NNW 13 19 7 10 - - -
21/03:00pm - - - - - NNW 13 22 7 12 - - -
21/02:30pm - - - - - NNW 15 22 8 12 - - -
21/02:00pm - - - - - NNW 15 26 8 14 - - -
21/01:30pm - - - - - NNW 17 30 9 16 - - -
21/01:00pm - - - - - NNW 15 28 8 15 - - -
21/12:30pm - - - - - NNW 11 17 6 9 - - -
21/12:00pm - - - - - N 9 20 5 11 - - -
21/11:30am - - - - - N 7 15 4 8 - - -
21/11:00am - - - - - NNE 6 11 3 6 - - -
21/10:30am - - - - - N 6 17 3 9 - - -
21/10:00am - - - - - NNE 7 19 4 10 - - -
21/09:30am - - - - - NNE 11 24 6 13 - - -
21/09:00am - - - - - NNE 11 28 6 15 - - -
21/08:30am - - - - - NNE 13 28 7 15 - - -
21/08:00am - - - - - NNE 15 30 8 16 - - -
21/07:30am - - - - - NE 17 30 9 16 - - -
21/07:00am - - - - - ENE 17 33 9 18 - - -
21/06:30am - - - - - ENE 19 28 10 15 - - -
21/06:00am - - - - - ENE 19 26 10 14 - - -
21/05:30am - - - - - ENE 20 30 11 16 - - -
21/05:00am - - - - - ENE 20 32 11 17 - - -
21/04:30am - - - - - ENE 22 33 12 18 - - -
21/04:00am - - - - - ENE 24 37 13 20 - - -
21/03:30am - - - - - E 28 37 15 20 - - -
21/03:00am - - - - - E 24 39 13 21 - - -
21/02:30am - - - - - E 26 41 14 22 - - -
21/02:00am - - - - - E 26 41 14 22 - - -
21/01:30am - - - - - E 30 43 16 23 - - -
21/01:00am - - - - - E 30 43 16 23 - - -
21/12:30am - - - - - E 28 39 15 21 - - -
21/12:00am - - - - - E 30 44 16 24 - - -
 
Date/Time
CDT
Temp
°C
App
Temp
°C
Dew
Point
Rel
Hum
%
Delta-T
°C
Wind Press
QNH
hPa
Press
MSL
hPa
Rain
since 9 am
mm
Dir
 
Spd
km/h
Gust
km/h
Spd
kts
Gust
kts
20/11:36pm - - - - - E 30 50 16 27 - - -
20/11:30pm - - - - - E 32 50 17 27 - - -
20/11:00pm - - - - - E 30 43 16 23 - - -
20/10:30pm - - - - - E 35 48 19 26 - - -
20/10:00pm - - - - - E 35 46 19 25 - - -
20/09:30pm - - - - - E 37 48 20 26 - - -
20/09:00pm - - - - - ESE 32 44 17 24 - - -
20/08:30pm - - - - - ESE 26 35 14 19 - - -
20/08:00pm - - - - - ESE 26 35 14 19 - - -
20/07:30pm - - - - - SE 28 35 15 19 - - -
20/07:00pm - - - - - SE 32 35 17 19 - - -
20/06:30pm - - - - - SE 30 35 16 19 - - -
20/06:00pm - - - - - SE 32 37 17 20 - - -
20/05:30pm - - - - - ESE 26 35 14 19 - - -
20/05:00pm - - - - - SE 30 39 16 21 - - -
20/04:30pm - - - - - ESE 26 37 14 20 - - -
20/04:00pm - - - - - ESE 28 39 15 21 - - -
20/03:30pm - - - - - ESE 22 39 12 21 - - -
20/03:00pm - - - - - ESE 24 41 13 22 - - -
20/02:30pm - - - - - ESE 24 37 13 20 - - -
20/02:00pm - - - - - E 20 33 11 18 - - -
20/01:30pm - - - - - E 24 35 13 19 - - -
20/01:00pm - - - - - ESE 26 35 14 19 - - -
20/12:30pm - - - - - ESE 30 41 16 22 - - -
20/12:00pm - - - - - ESE 24 39 13 21 - - -
20/11:30am - - - - - ESE 28 39 15 21 - - -
20/11:00am - - - - - ESE 32 44 17 24 - - -
20/10:30am - - - - - ESE 33 43 18 23 - - -
20/10:00am - - - - - ESE 37 46 20 25 - - -
20/09:30am - - - - - SE 37 50 20 27 - - -
20/09:00am - - - - - ESE 39 54 21 29 - - -
20/08:30am - - - - - ESE 39 52 21 28 - - -
20/08:00am - - - - - ESE 41 52 22 28 - - -
20/07:30am - - - - - ESE 35 46 19 25 - - -
20/07:00am - - - - - ESE 39 52 21 28 - - -
20/06:30am - - - - - ESE 41 56 22 30 - - -
20/06:00am - - - - - SE 44 57 24 31 - - -
20/05:30am - - - - - SE 44 56 24 30 - - -
20/05:00am - - - - - SE 46 56 25 30 - - -
20/04:30am - - - - - SE 46 61 25 33 - - -
20/04:00am - - - - - SE 48 59 26 32 - - -
20/03:30am - - - - - SE 50 61 27 33 - - -
20/03:00am - - - - - SE 48 59 26 32 - - -
20/02:30am - - - - - SE 50 61 27 33 - - -
20/02:00am - - - - - SE 54 65 29 35 - - -
20/01:30am - - - - - SE 52 67 28 36 - - -
20/01:00am - - - - - SE 52 65 28 35 - - -
20/12:30am - - - - - SE 52 63 28 34 - - -
20/12:00am - - - - - SE 52 65 28 35 - - -
 
Date/Time
CDT
Temp
°C
App
Temp
°C
Dew
Point
Rel
Hum
%
Delta-T
°C
Wind Press
QNH
hPa
Press
MSL
hPa
Rain
since 9 am
mm
Dir
 
Spd
km/h
Gust
km/h
Spd
kts
Gust
kts
19/11:30pm - - - - - SE 54 67 29 36 - - -
19/11:00pm - - - - - SSE 56 63 30 34 - - -
19/10:30pm - - - - - SSE 52 63 28 34 - - -
19/10:00pm - - - - - SSE 50 57 27 31 - - -
19/09:30pm - - - - - SSE 50 61 27 33 - - -
19/09:00pm - - - - - SE 50 61 27 33 - - -
19/08:30pm - - - - - SSE 48 57 26 31 - - -
19/08:00pm - - - - - SE 46 56 25 30 - - -
19/07:30pm - - - - - SE 46 54 25 29 - - -
19/07:00pm - - - - - SSE 52 59 28 32 - - -
19/06:30pm - - - - - SSE 52 59 28 32 - - -
19/06:00pm - - - - - SSE 56 63 30 34 - - -
19/05:30pm - - - - - SSE 52 59 28 32 - - -
19/05:00pm - - - - - SSE 50 56 27 30 - - -
19/04:30pm - - - - - SSE 46 56 25 30 - - -
19/04:00pm - - - - - S 39 44 21 24 - - -
19/03:30pm - - - - - SSE 33 39 18 21 - - -
19/03:29pm - - - - - SSE 33 39 18 21 - - -
19/03:00pm - - - - - SSE 13 19 7 10 - - -
19/02:30pm - - - - - S 11 19 6 10 - - -
19/02:00pm - - - - - WSW 7 19 4 10 - - -
19/01:30pm - - - - - W 6 15 3 8 - - -
19/01:00pm - - - - - W 7 15 4 8 - - -
19/12:30pm - - - - - WNW 7 17 4 9 - - -
19/12:00pm - - - - - NNW 11 20 6 11 - - -
19/11:30am - - - - - NNW 19 30 10 16 - - -
19/11:00am - - - - - NNW 17 24 9 13 - - -
19/10:30am - - - - - NNW 17 28 9 15 - - -
19/10:00am - - - - - NNW 19 26 10 14 - - -
19/09:30am - - - - - NNW 19 30 10 16 - - -
19/09:00am - - - - - NNW 19 26 10 14 - - -
19/08:30am - - - - - NNW 19 26 10 14 - - -
19/08:00am - - - - - NNW 19 32 10 17 - - -
19/07:30am - - - - - NNW 19 30 10 16 - - -
19/07:00am - - - - - NNW 17 26 9 14 - - -
19/06:30am - - - - - N 15 22 8 12 - - -
19/06:00am - - - - - N 15 26 8 14 - - -
19/05:30am - - - - - N 13 20 7 11 - - -
19/05:00am - - - - - N 13 28 7 15 - - -
19/04:30am - - - - - N 15 26 8 14 - - -
19/04:00am - - - - - N 15 28 8 15 - - -
19/03:30am - - - - - N 11 28 6 15 - - -
19/03:00am - - - - - N 11 22 6 12 - - -
19/02:30am - - - - - N 6 11 3 6 - - -
19/02:00am - - - - - NNE 4 7 2 4 - - -

Other Formats:

Comma delimited format used in spreadsheet applications
http://www.bom.gov.au/fwo/IDS60801/IDS60801.95679.axf

JavaScript Object Notation format (JSON) in row-major order
http://www.bom.gov.au/fwo/IDS60801/IDS60801.95679.json